Time,TemperatureF,DewpointF,PressureIn,WindDirection,WindDirectionDegrees,WindSpeedMPH,WindSpeedGustMPH,Humidity,HourlyPrecipIn,Conditions,Clouds,dailyrainin,SoftwareType,DateUTC
2013-03-04 00:01:00,23.0,19.0,-100.00,ENE,76,6.0,9.0,86,0.00,,,-99.99,,2013-03-04 07:01:00,
2013-03-04 00:11:00,22.0,19.0,-100.00,ENE,65,7.0,9.0,88,0.00,,,-99.99,,2013-03-04 07:11:00,
2013-03-04 00:21:00,22.0,19.0,-100.00,ENE,61,7.0,8.0,89,0.00,,,-99.99,,2013-03-04 07:21:00,
2013-03-04 00:31:00,22.0,19.0,-100.00,East,79,6.0,6.0,89,0.00,,,-99.99,,2013-03-04 07:31:00,
2013-03-04 00:41:00,21.0,19.0,-100.00,ENE,72,6.0,6.0,89,0.00,,,-99.99,,2013-03-04 07:41:00,
2013-03-04 00:51:00,22.0,19.0,-100.00,NE,54,4.0,4.0,88,0.00,,,-99.99,,2013-03-04 07:51:00,
2013-03-04 01:01:00,22.0,18.0,-100.00,NE,44,4.0,6.0,86,0.00,,,-99.99,,2013-03-04 08:01:00,
2013-03-04 01:11:00,22.0,18.0,-100.00,NE,52,6.0,6.0,84,0.00,,,-99.99,,2013-03-04 08:11:00,
2013-03-04 01:21:00,22.0,17.0,-100.00,NE,44,4.0,6.0,83,0.00,,,-99.99,,2013-03-04 08:21:00,
2013-03-04 01:31:00,21.0,18.0,-100.00,SSE,162,0.0,1.0,86,0.00,,,-99.99,,2013-03-04 08:31:00,
2013-03-04 01:41:00,21.0,18.0,-100.00,West,274,0.0,1.0,85,0.00,,,-99.99,,2013-03-04 08:41:00,
2013-03-04 01:52:00,22.0,18.0,-100.00,SW,230,3.0,4.0,85,0.00,,,-99.99,,2013-03-04 08:52:00,
2013-03-04 02:01:00,21.0,18.0,-100.00,SW,215,1.0,2.0,85,0.00,,,-99.99,,2013-03-04 09:01:00,
2013-03-04 02:11:00,21.0,17.0,-100.00,WSW,244,0.0,1.0,85,0.00,,,-99.99,,2013-03-04 09:11:00,
2013-03-04 02:21:00,20.0,17.0,-100.00,East,99,5.0,6.0,86,0.00,,,-99.99,,2013-03-04 09:21:00,
2013-03-04 02:31:00,19.0,16.0,-100.00,ESE,119,12.0,13.0,88,0.00,,,-99.99,,2013-03-04 09:31:00,
2013-03-04 02:41:00,19.0,16.0,-100.00,SE,138,9.0,12.0,89,0.00,,,-99.99,,2013-03-04 09:41:00,
2013-03-04 02:51:00,19.0,15.0,-100.00,SE,138,9.0,11.0,85,0.00,,,-99.99,,2013-03-04 09:51:00,
2013-03-04 03:01:00,19.0,14.0,-100.00,SE,131,9.0,12.0,79,0.00,,,-99.99,,2013-03-04 10:01:00,
2013-03-04 03:11:00,20.0,14.0,-100.00,SE,131,10.0,13.0,79,0.00,,,-99.99,,2013-03-04 10:11:00,
2013-03-04 03:21:00,19.0,14.0,-100.00,SE,126,8.0,11.0,79,0.00,,,-99.99,,2013-03-04 10:21:00,
2013-03-04 03:31:00,20.0,14.0,-100.00,SE,136,9.0,11.0,78,0.00,,,-99.99,,2013-03-04 10:31:00,
2013-03-04 03:41:00,20.0,14.0,-100.00,SE,130,9.0,11.0,78,0.00,,,-99.99,,2013-03-04 10:41:00,
2013-03-04 03:52:00,20.0,13.0,-100.00,SE,138,9.0,11.0,76,0.00,,,-99.99,,2013-03-04 10:52:00,
2013-03-04 04:01:00,20.0,14.0,-100.00,SE,141,9.0,11.0,78,0.00,,,-99.99,,2013-03-04 11:01:00,
2013-03-04 04:11:00,19.0,13.0,-100.00,SE,136,9.0,10.0,77,0.00,,,-99.99,,2013-03-04 11:11:00,
2013-03-04 04:21:00,20.0,14.0,-100.00,SE,138,9.0,10.0,78,0.00,,,-99.99,,2013-03-04 11:21:00,
2013-03-04 04:31:00,20.0,13.0,-100.00,SE,137,9.0,11.0,77,0.00,,,-99.99,,2013-03-04 11:31:00,
2013-03-04 04:41:00,20.0,14.0,-100.00,SE,136,9.0,10.0,78,0.00,,,-99.99,,2013-03-04 11:41:00,
2013-03-04 04:52:00,20.0,14.0,-100.00,ESE,123,6.0,7.0,78,0.00,,,-99.99,,2013-03-04 11:52:00,
2013-03-04 05:01:00,20.0,14.0,-100.00,SE,144,6.0,7.0,78,0.00,,,-99.99,,2013-03-04 12:01:00,
2013-03-04 05:11:00,20.0,14.0,-100.00,SE,144,7.0,8.0,79,0.00,,,-99.99,,2013-03-04 12:11:00,
2013-03-04 05:21:00,20.0,14.0,-100.00,SE,138,4.0,6.0,79,0.00,,,-99.99,,2013-03-04 12:21:00,
2013-03-04 05:32:00,19.0,14.0,-100.00,East,95,2.0,2.0,80,0.00,,,-99.99,,2013-03-04 12:32:00,
2013-03-04 05:42:00,19.0,14.0,-100.00,SE,127,2.0,3.0,80,0.00,,,-99.99,,2013-03-04 12:42:00,
2013-03-04 05:52:00,20.0,14.0,-100.00,SSE,148,4.0,4.0,78,0.00,,,-99.99,,2013-03-04 12:52:00,
2013-03-04 06:02:00,20.0,14.0,-100.00,SSE,158,1.0,2.0,78,0.00,,,-99.99,,2013-03-04 13:02:00,
2013-03-04 06:11:00,20.0,14.0,-100.00,SW,215,1.0,1.0,78,0.00,,,-99.99,,2013-03-04 13:11:00,
2013-03-04 06:21:00,19.0,15.0,-100.00,NW,315,4.0,4.0,81,0.00,,,-99.99,,2013-03-04 13:21:00,
2013-03-04 06:31:00,19.0,15.0,-100.00,NNW,329,3.0,4.0,83,0.00,,,-99.99,,2013-03-04 13:31:00,
2013-03-04 06:41:00,19.0,16.0,-100.00,NNW,329,4.0,6.0,88,0.00,,,-99.99,,2013-03-04 13:41:00,
2013-03-04 06:51:00,18.0,17.0,-100.00,NW,313,6.0,7.0,92,0.03,,,-99.99,,2013-03-04 13:51:00,
2013-03-04 07:01:00,18.0,17.0,-100.00,NW,316,7.0,9.0,94,0.04,,,-99.99,,2013-03-04 14:01:00,
2013-03-04 07:11:00,18.0,17.0,-100.00,North,353,0.0,0.0,94,0.03,,,-99.99,,2013-03-04 14:11:00,
2013-03-04 07:21:00,18.0,16.0,-100.00,SSW,195,4.0,5.0,94,0.00,,,-99.99,,2013-03-04 14:21:00,
2013-03-04 07:31:00,19.0,16.0,-100.00,SSW,203,4.0,4.0,90,0.00,,,-99.99,,2013-03-04 14:31:00,
2013-03-04 07:41:00,19.0,16.0,-100.00,South,172,0.0,0.0,88,0.00,,,-99.99,,2013-03-04 14:41:00,
2013-03-04 07:52:00,19.0,15.0,-100.00,WSW,250,1.0,3.0,85,0.00,,,-99.99,,2013-03-04 14:52:00,
2013-03-04 08:01:00,20.0,14.0,-100.00,WNW,301,3.0,4.0,79,0.00,,,-99.99,,2013-03-04 15:01:00,
2013-03-04 08:11:00,20.0,14.0,-100.00,NNW,329,4.0,6.0,79,0.00,,,-99.99,,2013-03-04 15:11:00,
2013-03-04 08:21:00,18.0,17.0,-100.00,NW,316,4.0,9.0,93,0.00,,,-99.99,,2013-03-04 15:21:00,
2013-03-04 08:31:00,18.0,15.0,-100.00,NW,320,11.0,14.0,89,0.00,,,-99.99,,2013-03-04 15:31:00,
2013-03-04 08:41:00,17.0,15.0,-100.00,NW,322,14.0,17.0,94,0.00,,,-99.99,,2013-03-04 15:41:00,
2013-03-04 08:51:00,17.0,15.0,-100.00,NW,313,12.0,14.0,94,0.00,,,-99.99,,2013-03-04 15:51:00,
2013-03-04 09:02:00,16.0,15.0,-100.00,NW,320,11.0,14.0,94,0.00,,,-99.99,,2013-03-04 16:02:00,
2013-03-04 09:11:00,16.0,15.0,-100.00,NW,325,10.0,12.0,94,0.00,,,-99.99,,2013-03-04 16:11:00,
2013-03-04 09:21:00,16.0,15.0,-100.00,NW,316,11.0,13.0,93,0.00,,,-99.99,,2013-03-04 16:21:00,
2013-03-04 09:31:00,16.0,14.0,-100.00,NW,326,12.0,15.0,92,0.00,,,-99.99,,2013-03-04 16:31:00,
2013-03-04 09:41:00,16.0,14.0,-100.00,NW,325,9.0,12.0,92,0.00,,,-99.99,,2013-03-04 16:41:00,
2013-03-04 09:52:00,16.0,14.0,-100.00,NW,320,10.0,14.0,92,0.00,,,-99.99,,2013-03-04 16:52:00,
2013-03-04 10:01:00,15.0,14.0,-100.00,NW,312,7.0,9.0,93,0.00,,,-99.99,,2013-03-04 17:01:00,
2013-03-04 10:11:00,16.0,14.0,-100.00,NW,322,7.0,11.0,92,0.00,,,-99.99,,2013-03-04 17:11:00,
2013-03-04 10:21:00,16.0,14.0,-100.00,NW,311,7.0,12.0,90,0.00,,,-99.99,,2013-03-04 17:21:00,
2013-03-04 10:31:00,16.0,14.0,-100.00,NNW,333,4.0,7.0,88,0.00,,,-99.99,,2013-03-04 17:31:00,
2013-03-04 10:42:00,18.0,14.0,-100.00,North,4,2.0,5.0,87,0.00,,,-99.99,,2013-03-04 17:42:00,
2013-03-04 10:52:00,16.0,13.0,-100.00,ENE,73,5.0,6.0,86,0.06,,,-99.99,,2013-03-04 17:52:00,
2013-03-04 11:01:00,16.0,13.0,-100.00,ENE,59,7.0,9.0,89,0.07,,,-99.99,,2013-03-04 18:01:00,
2013-03-04 11:11:00,16.0,14.0,-100.00,NE,55,7.0,9.0,89,0.10,,,-99.99,,2013-03-04 18:11:00,
2013-03-04 11:21:00,17.0,13.0,-100.00,North,350,6.0,7.0,83,0.00,,,-99.99,,2013-03-04 18:21:00,
2013-03-04 11:31:00,21.0,16.0,-100.00,North,354,2.0,4.0,78,0.00,,,-99.99,,2013-03-04 18:31:00,
2013-03-04 11:41:00,18.0,11.0,-100.00,North,353,6.0,10.0,73,0.00,,,-99.99,,2013-03-04 18:41:00,
2013-03-04 11:51:00,19.0,11.0,-100.00,NNE,18,2.0,6.0,72,0.00,,,-99.99,,2013-03-04 18:51:00,
2013-03-04 12:01:00,18.0,9.0,-100.00,ENE,71,7.0,9.0,67,0.00,,,-99.99,,2013-03-04 19:01:00,
2013-03-04 12:11:00,18.0,9.0,-100.00,ENE,64,7.0,9.0,67,0.00,,,-99.99,,2013-03-04 19:11:00,
2013-03-04 12:21:00,18.0,9.0,-100.00,ENE,61,7.0,9.0,67,0.00,,,-99.99,,2013-03-04 19:21:00,
2013-03-04 12:31:00,19.0,8.0,-100.00,North,0,6.0,11.0,62,0.00,,,-99.99,,2013-03-04 19:31:00,
2013-03-04 12:41:00,19.0,7.0,-100.00,North,357,6.0,8.0,59,0.00,,,-99.99,,2013-03-04 19:41:00,
2013-03-04 12:51:00,20.0,9.0,-100.00,NW,326,6.0,9.0,61,0.00,,,-99.99,,2013-03-04 19:51:00,
2013-03-04 13:01:00,22.0,8.0,-100.00,NNE,18,1.0,2.0,55,0.00,,,-99.99,,2013-03-04 20:01:00,
2013-03-04 13:11:00,20.0,8.0,-100.00,NNW,328,6.0,7.0,59,0.00,,,-99.99,,2013-03-04 20:11:00,
2013-03-04 13:21:00,20.0,8.0,-100.00,NNW,328,6.0,7.0,59,0.00,,,-99.99,,2013-03-04 20:21:00,
2013-03-04 13:31:00,23.0,9.0,-100.00,NNE,25,3.0,7.0,56,0.00,,,-99.99,,2013-03-04 20:31:00,
2013-03-04 13:41:00,23.0,8.0,-100.00,NW,325,2.0,5.0,51,0.00,,,-99.99,,2013-03-04 20:41:00,
2013-03-04 13:52:00,22.0,9.0,-100.00,NW,323,4.0,7.0,57,0.00,,,-99.99,,2013-03-04 20:52:00,
2013-03-04 14:01:00,21.0,9.0,-100.00,NW,323,6.0,7.0,59,0.00,,,-99.99,,2013-03-04 21:01:00,
2013-03-04 14:11:00,20.0,8.0,-100.00,North,359,4.0,6.0,60,0.00,,,-99.99,,2013-03-04 21:11:00,
2013-03-04 14:21:00,22.0,11.0,-100.00,NNE,20,4.0,6.0,61,0.00,,,-99.99,,2013-03-04 21:21:00,
2013-03-04 14:31:00,22.0,9.0,-100.00,NNW,343,4.0,7.0,57,0.00,,,-99.99,,2013-03-04 21:31:00,
2013-03-04 14:41:00,23.0,9.0,-100.00,NNW,332,3.0,6.0,56,0.00,,,-99.99,,2013-03-04 21:41:00,
2013-03-04 14:52:00,23.0,9.0,-100.00,East,79,6.0,6.0,55,0.00,,,-99.99,,2013-03-04 21:52:00,
2013-03-04 15:01:00,21.0,10.0,-100.00,ENE,71,3.0,5.0,63,0.00,,,-99.99,,2013-03-04 22:01:00,
2013-03-04 15:11:00,20.0,10.0,-100.00,ENE,62,7.0,11.0,64,0.00,,,-99.99,,2013-03-04 22:11:00,
2013-03-04 15:21:00,19.0,9.0,-100.00,ENE,71,4.0,6.0,63,0.00,,,-99.99,,2013-03-04 22:21:00,
2013-03-04 15:31:00,20.0,8.0,-100.00,NE,55,3.0,4.0,61,0.00,,,-99.99,,2013-03-04 22:31:00,
2013-03-04 15:42:00,22.0,9.0,-100.00,ENE,69,2.0,3.0,58,0.00,,,-99.99,,2013-03-04 22:42:00,
2013-03-04 15:51:00,23.0,7.0,-100.00,NW,322,3.0,5.0,50,0.00,,,-99.99,,2013-03-04 22:51:00,
2013-03-04 16:01:00,22.0,9.0,-100.00,ENE,73,2.0,4.0,56,0.00,,,-99.99,,2013-03-04 23:01:00,
2013-03-04 16:11:00,22.0,10.0,-100.00,East,82,2.0,4.0,59,0.00,,,-99.99,,2013-03-04 23:11:00,
2013-03-04 16:21:00,20.0,12.0,-100.00,ENE,59,9.0,11.0,70,0.00,,,-99.99,,2013-03-04 23:21:00,
2013-03-04 16:31:00,19.0,12.0,-100.00,ENE,62,7.0,10.0,73,0.00,,,-99.99,,2013-03-04 23:31:00,
2013-03-04 16:41:00,19.0,12.0,-100.00,ENE,69,8.0,9.0,72,0.00,,,-99.99,,2013-03-04 23:41:00,
2013-03-04 16:52:00,19.0,11.0,-100.00,ENE,62,4.0,6.0,71,0.00,,,-99.99,,2013-03-04 23:52:00,
2013-03-04 17:01:00,19.0,11.0,-100.00,ENE,71,6.0,7.0,70,0.00,,,-99.99,,2013-03-05 00:01:00,
2013-03-04 17:11:00,19.0,11.0,-100.00,ENE,71,6.0,6.0,71,0.00,,,-99.99,,2013-03-05 00:11:00,
2013-03-04 17:21:00,20.0,11.0,-100.00,ENE,58,5.0,6.0,67,0.00,,,-99.99,,2013-03-05 00:21:00,
2013-03-04 17:32:00,18.0,10.0,-100.00,ENE,64,6.0,7.0,71,0.00,,,-99.99,,2013-03-05 00:32:00,
2013-03-04 17:41:00,18.0,11.0,-100.00,ENE,62,7.0,7.0,73,0.00,,,-99.99,,2013-03-05 00:41:00,
2013-03-04 17:51:00,16.0,9.0,-100.00,ENE,61,4.0,5.0,75,0.00,,,-99.99,,2013-03-05 00:51:00,
2013-03-04 18:01:00,16.0,9.0,-100.00,East,85,6.0,7.0,74,0.00,,,-99.99,,2013-03-05 01:01:00,
2013-03-04 18:11:00,16.0,9.0,-100.00,ENE,73,4.0,5.0,75,0.00,,,-99.99,,2013-03-05 01:11:00,
2013-03-04 18:21:00,17.0,9.0,-100.00,East,83,6.0,6.0,73,0.00,,,-99.99,,2013-03-05 01:21:00,
2013-03-04 18:32:00,17.0,10.0,-100.00,ESE,117,7.0,9.0,73,0.00,,,-99.99,,2013-03-05 01:32:00,
2013-03-04 18:41:00,17.0,10.0,-100.00,ESE,120,8.0,9.0,74,0.00,,,-99.99,,2013-03-05 01:41:00,
2013-03-04 18:51:00,17.0,10.0,-100.00,SE,127,7.0,9.0,74,0.00,,,-99.99,,2013-03-05 01:51:00,
2013-03-04 19:01:00,17.0,10.0,-100.00,SE,127,7.0,9.0,74,0.00,,,-99.99,,2013-03-05 02:01:00,
2013-03-04 19:11:00,16.0,10.0,-100.00,SE,134,7.0,9.0,76,0.00,,,-99.99,,2013-03-05 02:11:00,
2013-03-04 19:21:00,16.0,10.0,-100.00,SE,144,8.0,9.0,76,0.00,,,-99.99,,2013-03-05 02:21:00,
2013-03-04 19:31:00,16.0,9.0,-100.00,SSE,147,10.0,11.0,75,0.00,,,-99.99,,2013-03-05 02:31:00,
2013-03-04 19:41:00,16.0,9.0,-100.00,SE,137,8.0,9.0,75,0.00,,,-99.99,,2013-03-05 02:41:00,
2013-03-04 19:52:00,16.0,9.0,-100.00,SE,145,7.0,7.0,74,0.00,,,-99.99,,2013-03-05 02:52:00,
2013-03-04 20:01:00,17.0,9.0,-100.00,SE,140,9.0,9.0,72,0.00,,,-99.99,,2013-03-05 03:01:00,
2013-03-04 20:11:00,16.0,9.0,-100.00,SE,136,7.0,9.0,75,0.00,,,-99.99,,2013-03-05 03:11:00,
2013-03-04 20:21:00,16.0,9.0,-100.00,SE,141,8.0,9.0,73,0.00,,,-99.99,,2013-03-05 03:21:00,
2013-03-04 20:31:00,15.0,8.0,-100.00,SE,140,9.0,9.0,75,0.00,,,-99.99,,2013-03-05 03:31:00,
2013-03-04 20:41:00,16.0,9.0,-100.00,SE,134,8.0,9.0,73,0.00,,,-99.99,,2013-03-05 03:41:00,
2013-03-04 20:51:00,14.0,8.0,-100.00,SE,133,8.0,9.0,77,0.00,,,-99.99,,2013-03-05 03:51:00,
2013-03-04 21:01:00,14.0,8.0,-100.00,SE,134,11.0,11.0,76,0.00,,,-99.99,,2013-03-05 04:01:00,
2013-03-04 21:11:00,14.0,8.0,-100.00,SE,138,10.0,11.0,77,0.00,,,-99.99,,2013-03-05 04:11:00,
2013-03-04 21:21:00,13.0,7.0,-100.00,SSE,147,11.0,11.0,76,0.00,,,-99.99,,2013-03-05 04:21:00,
2013-03-04 21:31:00,13.0,7.0,-100.00,SSE,150,8.0,9.0,76,0.00,,,-99.99,,2013-03-05 04:31:00,
2013-03-04 21:41:00,13.0,7.0,-100.00,SE,140,7.0,7.0,76,0.00,,,-99.99,,2013-03-05 04:41:00,
2013-03-04 21:51:00,13.0,7.0,-100.00,SE,131,9.0,10.0,75,0.00,,,-99.99,,2013-03-05 04:51:00,
2013-03-04 22:01:00,13.0,6.0,-100.00,SE,138,12.0,12.0,75,0.00,,,-99.99,,2013-03-05 05:01:00,
2013-03-04 22:11:00,12.0,6.0,-100.00,SSE,148,10.0,11.0,76,0.00,,,-99.99,,2013-03-05 05:11:00,
2013-03-04 22:22:00,13.0,6.0,-100.00,South,172,9.0,11.0,74,0.00,,,-99.99,,2013-03-05 05:22:00,
2013-03-04 22:31:00,12.0,6.0,-100.00,SSE,147,11.0,12.0,77,0.00,,,-99.99,,2013-03-05 05:31:00,
2013-03-04 22:41:00,13.0,6.0,-100.00,SSE,152,11.0,13.0,74,0.00,,,-99.99,,2013-03-05 05:41:00,
2013-03-04 22:51:00,12.0,6.0,-100.00,SSE,147,11.0,13.0,77,0.00,,,-99.99,,2013-03-05 05:51:00,
2013-03-04 23:01:00,12.0,6.0,-100.00,SSE,148,9.0,11.0,78,0.00,,,-99.99,,2013-03-05 06:01:00,
2013-03-04 23:11:00,12.0,5.0,-100.00,SSE,150,11.0,14.0,73,0.00,,,-99.99,,2013-03-05 06:11:00,
2013-03-04 23:21:00,15.0,6.0,-100.00,SW,229,5.0,7.0,68,0.00,,,-99.99,,2013-03-05 06:21:00,
2013-03-04 23:31:00,14.0,6.0,-100.00,WSW,253,1.0,2.0,69,0.00,,,-99.99,,2013-03-05 06:31:00,
2013-03-04 23:41:00,13.0,5.0,-100.00,SSW,203,2.0,3.0,69,0.00,,,-99.99,,2013-03-05 06:41:00,
2013-03-04 23:52:00,14.0,6.0,-100.00,SSW,193,3.0,4.0,72,0.00,,,-99.99,,2013-03-05 06:52:00,